createdAt,value
2018-09-17T00:02:17.297Z,4.87
2018-09-17T00:04:49.981Z,5.90
2018-09-17T00:07:22.435Z,6.50
2018-09-17T00:09:56.462Z,6.57
2018-09-17T00:12:29.084Z,7.13
2018-09-17T00:15:04.530Z,7.33
2018-09-17T00:17:39.512Z,5.20
2018-09-17T00:20:12.137Z,7.20
2018-09-17T00:22:44.695Z,5.57
2018-09-17T00:25:17.136Z,5.93
2018-09-17T00:27:49.606Z,9.57
2018-09-17T00:30:22.699Z,7.30
2018-09-17T00:32:55.177Z,10.57
2018-09-17T00:35:28.012Z,7.47
2018-09-17T00:38:00.960Z,8.63
2018-09-17T00:40:33.485Z,7.37
2018-09-17T00:43:06.100Z,7.57
2018-09-17T00:45:39.633Z,7.13
2018-09-17T00:48:12.512Z,8.57
2018-09-17T00:50:45.116Z,11.53
2018-09-17T00:53:20.107Z,8.87
2018-09-17T00:55:52.728Z,8.43
2018-09-17T00:58:25.256Z,7.27
2018-09-17T01:00:58.390Z,7.50
2018-09-17T01:03:30.975Z,7.47
2018-09-17T01:06:03.546Z,8.77
2018-09-17T01:08:37.202Z,7.68
2018-09-17T01:11:09.879Z,6.53
2018-09-17T01:13:42.456Z,7.63
2018-09-17T01:16:15.565Z,6.43
2018-09-17T01:18:48.605Z,7.13
2018-09-17T01:21:21.561Z,7.55
2018-09-17T01:23:56.739Z,6.78
2018-09-17T01:26:29.788Z,7.90
2018-09-17T01:29:03.224Z,7.50
2018-09-17T01:31:37.583Z,8.17
2018-09-17T01:34:10.421Z,7.10
2018-09-17T01:36:42.966Z,7.00
2018-09-17T01:39:15.936Z,7.93
2018-09-17T01:41:48.526Z,7.17
2018-09-17T01:44:21.086Z,5.90
2018-09-17T01:46:54.292Z,5.90
2018-09-17T01:49:27.092Z,7.10
2018-09-17T01:51:59.648Z,9.67
2018-09-17T01:54:33.528Z,7.67
2018-09-17T01:57:05.885Z,6.23
2018-09-17T01:59:38.422Z,7.00
2018-09-17T02:02:11.399Z,9.13
2018-09-17T02:04:44.168Z,8.07
2018-09-17T02:07:16.711Z,9.73
2018-09-17T02:09:49.468Z,8.23
2018-09-17T02:12:22.061Z,10.00
2018-09-17T02:14:54.461Z,11.13
2018-09-17T02:17:27.597Z,9.60
2018-09-17T02:20:00.101Z,7.87
2018-09-17T02:22:32.591Z,9.27
2018-09-17T02:25:06.708Z,9.53
2018-09-17T02:27:39.537Z,6.97
2018-09-17T02:30:13.535Z,8.90
2018-09-17T02:32:46.562Z,9.27
2018-09-17T02:35:19.101Z,8.63
2018-09-17T02:37:51.665Z,9.23
2018-09-17T02:40:24.622Z,7.77
2018-09-17T02:42:57.519Z,8.40
2018-09-17T02:45:30.006Z,9.85
2018-09-17T02:48:04.100Z,9.30
2018-09-17T02:50:37.048Z,8.90
2018-09-17T02:53:09.544Z,7.63
2018-09-17T02:55:42.420Z,8.83
2018-09-17T02:58:14.880Z,9.97
2018-09-17T03:00:47.423Z,8.90
2018-09-17T03:03:21.844Z,9.97
2018-09-17T03:05:55.272Z,9.50
2018-09-17T03:08:27.822Z,8.23
2018-09-17T03:11:00.851Z,9.63
2018-09-17T03:13:33.336Z,10.27
2018-09-17T03:16:05.875Z,14.17
2018-09-17T03:18:56.013Z,10.97
2018-09-17T03:21:28.985Z,12.27
2018-09-17T03:24:01.531Z,12.60
2018-09-17T03:26:34.459Z,15.20
2018-09-17T03:29:07.203Z,12.45
2018-09-17T03:31:42.237Z,11.07
2018-09-17T03:34:16.173Z,12.27
2018-09-17T03:36:48.832Z,11.20
2018-09-17T03:39:21.403Z,10.00
2018-09-17T03:41:54.452Z,8.83
2018-09-17T03:44:27.329Z,10.97
2018-09-17T03:46:59.961Z,10.27
2018-09-17T03:49:32.755Z,14.57
2018-09-17T03:52:05.763Z,14.50
2018-09-17T03:54:38.509Z,14.33
2018-09-17T03:57:11.137Z,10.63
2018-09-17T03:59:44.157Z,11.55
2018-09-17T04:02:17.093Z,12.65
2018-09-17T04:04:49.835Z,10.93
2018-09-17T04:07:22.846Z,13.77
2018-09-17T04:09:55.398Z,11.70
2018-09-17T04:12:28.256Z,10.33
2018-09-17T04:15:00.942Z,11.37
2018-09-17T04:17:34.692Z,9.47
2018-09-17T04:20:08.104Z,10.87
2018-09-17T04:22:41.911Z,9.70
2018-09-17T04:25:15.155Z,11.73
2018-09-17T04:27:47.748Z,12.27
2018-09-17T04:30:20.327Z,12.83
2018-09-17T04:32:54.407Z,11.63
2018-09-17T04:35:26.758Z,16.40
2018-09-17T04:37:59.177Z,11.50
2018-09-17T04:40:33.037Z,9.93
2018-09-17T04:43:05.775Z,9.27
2018-09-17T04:45:38.453Z,12.43
2018-09-17T04:48:11.259Z,10.90
2018-09-17T04:50:44.022Z,8.83
2018-09-17T04:53:16.567Z,10.40
2018-09-17T04:55:51.017Z,12.30
2018-09-17T04:58:23.632Z,10.20
2018-09-17T05:00:56.242Z,12.23
2018-09-17T05:03:29.142Z,11.53
2018-09-17T05:06:01.824Z,14.15
2018-09-17T05:08:35.851Z,13.20
2018-09-17T05:11:08.568Z,13.52
2018-09-17T05:13:41.091Z,11.37
2018-09-17T05:16:14.645Z,13.33
2018-09-17T05:18:47.923Z,16.53
2018-09-17T05:21:20.935Z,12.63
2018-09-17T05:23:53.377Z,13.80
2018-09-17T05:26:26.895Z,20.13
2018-09-17T05:28:59.435Z,16.93
2018-09-17T05:31:32.492Z,12.20
2018-09-17T05:34:07.141Z,16.03
2018-09-17T05:36:40.040Z,12.13
2018-09-17T05:39:15.034Z,11.97
2018-09-17T05:41:49.116Z,11.05
2018-09-17T05:44:21.681Z,9.27
2018-09-17T05:46:55.124Z,10.97
2018-09-17T05:49:29.112Z,12.00
2018-09-17T05:52:02.647Z,9.85
2018-09-17T05:54:35.387Z,12.53
2018-09-17T05:57:08.868Z,10.10
2018-09-17T05:59:43.797Z,11.60
2018-09-17T06:02:17.476Z,8.07
2018-09-17T06:04:50.959Z,8.57
2018-09-17T06:07:24.234Z,9.38
2018-09-17T06:09:57.409Z,11.47
2018-09-17T06:12:30.627Z,11.50
2018-09-17T06:15:05.552Z,13.17
2018-09-17T06:17:38.649Z,15.70
2018-09-17T06:20:11.187Z,10.88
2018-09-17T06:22:45.212Z,12.70
2018-09-17T06:25:17.771Z,11.60
2018-09-17T06:27:52.561Z,11.23
2018-09-17T06:30:25.605Z,13.97
2018-09-17T06:32:58.712Z,13.60
2018-09-17T06:35:32.191Z,20.73
2018-09-17T06:38:05.370Z,12.33
2018-09-17T06:40:37.951Z,13.17
2018-09-17T06:43:11.887Z,20.60
2018-09-17T06:45:44.767Z,19.23
2018-09-17T06:48:18.086Z,15.07
2018-09-17T06:50:53.201Z,14.70
2018-09-17T06:53:26.750Z,9.87
2018-09-17T06:55:59.318Z,12.13
2018-09-17T06:58:31.960Z,14.20
2018-09-17T07:01:05.894Z,12.63
2018-09-17T07:03:39.385Z,16.73
2018-09-17T07:06:13.948Z,12.67
2018-09-17T07:08:49.248Z,14.97
2018-09-17T07:11:25.613Z,9.03
2018-09-17T07:13:58.193Z,11.60
2018-09-17T07:16:31.036Z,11.77
2018-09-17T07:19:03.805Z,9.37
2018-09-17T07:21:37.227Z,11.57
2018-09-17T07:24:11.128Z,9.77
2018-09-17T07:26:45.375Z,7.10
2018-09-17T07:29:21.001Z,8.97
2018-09-17T07:31:56.836Z,7.70
2018-09-17T07:34:29.402Z,7.70
2018-09-17T07:37:02.025Z,11.37
2018-09-17T07:39:34.988Z,8.33
2018-09-17T07:42:07.504Z,11.37
2018-09-17T07:44:40.937Z,8.67
2018-09-17T07:47:14.348Z,8.03
2018-09-17T07:49:50.068Z,10.10
2018-09-17T07:52:38.444Z,8.63
2018-09-17T07:55:13.940Z,9.67
2018-09-17T07:57:46.846Z,6.23
2018-09-17T08:00:20.304Z,6.63
2018-09-17T08:02:53.682Z,5.77
2018-09-17T08:05:27.445Z,9.07
2018-09-17T08:08:00.521Z,9.55
2018-09-17T08:10:34.377Z,7.73
2018-09-17T08:13:08.288Z,10.03
2018-09-17T08:15:41.369Z,5.33
2018-09-17T08:18:14.831Z,9.27
2018-09-17T08:20:48.434Z,9.83
2018-09-17T08:23:32.168Z,8.77
2018-09-17T08:26:08.414Z,6.27
2018-09-17T08:28:42.395Z,6.77
2018-09-17T08:31:16.681Z,9.33
2018-09-17T08:33:52.824Z,8.07
2018-09-17T08:36:28.062Z,6.73
2018-09-17T08:39:01.030Z,8.27
2018-09-17T08:41:33.720Z,8.67
2018-09-17T08:44:11.592Z,9.13
2018-09-17T08:46:46.873Z,8.97
2018-09-17T08:49:22.592Z,9.10
2018-09-17T08:51:59.847Z,7.70
2018-09-17T08:54:42.352Z,10.43
2018-09-17T08:57:23.294Z,6.93
2018-09-17T09:00:04.448Z,8.63
2018-09-17T09:02:43.970Z,9.60
2018-09-17T09:05:23.297Z,7.80
2018-09-17T09:08:06.419Z,8.23
2018-09-17T09:11:12.286Z,7.55
2018-09-17T09:14:07.384Z,6.72
2018-09-17T09:16:47.993Z,10.27
2018-09-17T09:19:21.236Z,7.32
2018-09-17T09:21:55.228Z,8.77
2018-09-17T09:24:30.000Z,7.70
2018-09-17T09:27:16.063Z,5.07
2018-09-17T09:29:51.080Z,6.13
2018-09-17T09:32:27.421Z,6.77
2018-09-17T09:35:10.170Z,6.37
2018-09-17T09:37:46.834Z,10.07
2018-09-17T09:40:34.690Z,9.03
2018-09-17T09:43:14.944Z,5.22
2018-09-17T09:45:49.360Z,5.03
2018-09-17T09:48:32.289Z,5.13
2018-09-17T09:51:22.628Z,4.97
2018-09-17T09:53:58.582Z,4.00
2018-09-17T09:56:33.668Z,5.43
2018-09-17T09:59:15.371Z,4.63
2018-09-17T10:02:16.768Z,5.80
2018-09-17T10:04:50.728Z,5.40
2018-09-17T10:07:29.802Z,5.33
2018-09-17T10:10:11.970Z,7.50
2018-09-17T10:12:52.764Z,7.60
2018-09-17T10:15:47.796Z,4.60
2018-09-17T10:18:27.286Z,5.93
2018-09-17T10:21:00.568Z,6.62
2018-09-17T10:23:36.654Z,5.12
2018-09-17T10:26:12.964Z,4.97
2018-09-17T10:28:45.747Z,5.85
2018-09-17T10:31:26.406Z,4.40
2018-09-17T10:34:10.211Z,5.17
2018-09-17T10:36:49.976Z,4.40
2018-09-17T10:39:26.472Z,5.33
2018-09-17T10:42:04.543Z,3.40
2018-09-17T10:44:39.744Z,4.93
2018-09-17T10:47:14.477Z,3.83
2018-09-17T10:49:50.573Z,6.37
2018-09-17T10:52:28.084Z,3.80
2018-09-17T10:55:12.094Z,3.67
2018-09-17T10:57:46.676Z,4.53
2018-09-17T11:00:23.401Z,3.15
2018-09-17T11:03:00.831Z,3.73
2018-09-17T11:05:39.390Z,4.17
2018-09-17T11:08:15.213Z,3.93
2018-09-17T11:10:49.199Z,3.63
2018-09-17T11:13:25.229Z,5.77
2018-09-17T11:16:00.152Z,2.57
2018-09-17T11:18:34.535Z,3.97
2018-09-17T11:21:10.751Z,2.53
2018-09-17T11:23:45.096Z,2.73
2018-09-17T11:26:18.062Z,3.50
2018-09-17T11:28:54.721Z,2.73
2018-09-17T11:31:32.720Z,3.93
2018-09-17T11:34:08.759Z,4.50
2018-09-17T11:36:42.622Z,2.60
2018-09-17T11:39:20.068Z,4.50
2018-09-17T11:41:52.691Z,4.10
2018-09-17T11:44:25.277Z,2.37
2018-09-17T11:46:57.836Z,2.53
2018-09-17T11:49:36.307Z,4.47
2018-09-17T11:52:09.999Z,4.53
2018-09-17T11:54:43.672Z,3.60
2018-09-17T11:57:17.604Z,2.87
2018-09-17T11:59:51.136Z,2.20
2018-09-17T12:02:29.172Z,5.30
2018-09-17T12:05:58.393Z,2.47
2018-09-17T12:08:32.956Z,4.87
2018-09-17T12:11:06.140Z,2.80
2018-09-17T12:13:39.185Z,4.57
2018-09-17T12:16:12.568Z,2.55
2018-09-17T12:18:45.132Z,2.33
2018-09-17T12:21:21.078Z,3.47
2018-09-17T12:23:54.106Z,3.60
2018-09-17T12:26:27.318Z,3.70
2018-09-17T12:29:01.596Z,3.35
2018-09-17T12:31:35.524Z,3.27
2018-09-17T12:34:11.009Z,2.40
2018-09-17T12:36:44.072Z,3.03
2018-09-17T12:39:16.617Z,2.33
2018-09-17T12:41:49.769Z,2.53
2018-09-17T12:44:24.980Z,3.37
2018-09-17T12:47:01.297Z,3.00
2018-09-17T12:49:34.516Z,3.30
2018-09-17T12:52:09.868Z,5.20
2018-09-17T12:54:42.534Z,1.87
2018-09-17T12:57:17.770Z,2.80
2018-09-17T12:59:54.684Z,1.80
2018-09-17T13:02:29.922Z,2.47
2018-09-17T13:05:06.151Z,2.00
2018-09-17T13:07:39.450Z,3.37
2018-09-17T13:10:16.228Z,2.97
2018-09-17T13:12:49.424Z,3.53
2018-09-17T13:15:21.982Z,1.90
2018-09-17T13:17:54.696Z,5.33
2018-09-17T13:20:31.124Z,3.63
2018-09-17T13:23:05.673Z,2.73
2018-09-17T13:25:40.492Z,1.80
2018-09-17T13:28:15.404Z,2.13
2018-09-17T13:30:49.667Z,2.07
2018-09-17T13:33:23.339Z,2.63
2018-09-17T13:35:56.648Z,2.03
2018-09-17T13:38:31.936Z,5.33
2018-09-17T13:41:05.100Z,3.10
2018-09-17T13:43:40.538Z,4.50
2018-09-17T13:46:14.824Z,2.23
2018-09-17T13:48:47.527Z,3.23
2018-09-17T13:51:20.096Z,3.00
2018-09-17T13:53:53.707Z,6.53
2018-09-17T13:56:30.443Z,2.00
2018-09-17T13:59:05.284Z,3.03
2018-09-17T14:01:41.067Z,3.10
2018-09-17T14:04:16.787Z,1.80
2018-09-17T14:06:49.778Z,1.77
2018-09-17T14:09:24.901Z,4.00
2018-09-17T14:11:59.086Z,3.03
2018-09-17T14:14:33.825Z,2.30
2018-09-17T14:17:14.762Z,4.15
2018-09-17T14:19:50.672Z,2.63
2018-09-17T14:22:34.734Z,2.30
2018-09-17T14:25:09.491Z,5.00
2018-09-17T14:27:44.384Z,3.10
2018-09-17T14:30:19.563Z,2.70
2018-09-17T14:33:04.683Z,3.03
2018-09-17T14:36:03.592Z,1.97
2018-09-17T14:39:08.836Z,2.20
2018-09-17T14:41:49.504Z,3.87
2018-09-17T14:44:24.139Z,2.73
2018-09-17T14:47:00.015Z,6.73
2018-09-17T14:49:41.574Z,2.70
2018-09-17T14:52:18.590Z,3.10
2018-09-17T14:55:03.595Z,5.03
2018-09-17T14:57:46.899Z,4.67
2018-09-17T15:00:27.241Z,5.00
2018-09-17T15:03:09.089Z,2.03
2018-09-17T15:05:45.671Z,3.10
2018-09-17T15:08:20.099Z,5.63
2018-09-17T15:10:54.007Z,2.27
2018-09-17T15:13:26.514Z,4.50
2018-09-17T15:16:02.130Z,6.87
2018-09-17T15:18:47.333Z,4.13
2018-09-17T15:21:21.602Z,3.93
2018-09-17T15:23:57.616Z,6.12
2018-09-17T15:26:31.799Z,2.93
2018-09-17T15:29:07.184Z,3.20
2018-09-17T15:31:40.436Z,3.80
2018-09-17T15:34:16.035Z,4.57
2018-09-17T15:36:50.721Z,4.43
2018-09-17T15:39:25.077Z,4.27
2018-09-17T15:41:59.621Z,3.10
2018-09-17T15:44:34.657Z,2.80
2018-09-17T15:47:07.492Z,5.30
2018-09-17T15:49:45.715Z,2.97
2018-09-17T15:52:21.159Z,5.53
2018-09-17T15:54:53.631Z,3.47
2018-09-17T15:57:26.519Z,6.73
2018-09-17T15:59:59.807Z,4.40
2018-09-17T16:02:32.380Z,3.33
2018-09-17T16:05:06.804Z,5.50
2018-09-17T16:07:47.935Z,2.30
2018-09-17T16:10:21.570Z,2.97
2018-09-17T16:12:58.060Z,3.57
2018-09-17T16:15:32.806Z,4.60
2018-09-17T16:18:09.504Z,2.83
2018-09-17T16:20:45.969Z,3.50
2018-09-17T16:23:20.670Z,2.13
2018-09-17T16:25:55.729Z,1.87
2018-09-17T16:28:29.303Z,2.93
2018-09-17T16:31:03.433Z,5.40
2018-09-17T16:33:37.994Z,3.20
2018-09-17T16:36:11.968Z,3.33
2018-09-17T16:38:45.855Z,4.00
2018-09-17T16:41:22.487Z,2.80
2018-09-17T16:43:55.896Z,3.23
2018-09-17T16:46:31.501Z,3.57
2018-09-17T16:49:08.592Z,3.58
2018-09-17T16:51:42.864Z,4.03
2018-09-17T16:54:16.460Z,3.50
2018-09-17T16:56:50.764Z,2.97
2018-09-17T16:59:24.943Z,1.80
2018-09-17T17:01:58.758Z,3.13
2018-09-17T17:04:37.297Z,2.80
2018-09-17T17:07:10.105Z,3.80
2018-09-17T17:09:51.524Z,4.97
2018-09-17T17:12:25.901Z,2.30
2018-09-17T17:15:04.236Z,2.47
2018-09-17T17:17:41.931Z,5.33
2018-09-17T17:20:17.713Z,10.03
2018-09-17T17:22:52.706Z,6.50
2018-09-17T17:25:27.327Z,4.13
2018-09-17T17:28:03.937Z,4.93
2018-09-17T17:30:38.612Z,6.47
2018-09-17T17:33:14.275Z,3.77
2018-09-17T17:35:50.323Z,4.22
2018-09-17T17:38:24.884Z,5.35
2018-09-17T17:40:58.536Z,4.75
2018-09-17T17:43:32.189Z,6.50
2018-09-17T17:46:04.886Z,3.60
2018-09-17T17:48:40.024Z,3.90
2018-09-17T17:51:19.736Z,2.57
2018-09-17T17:53:59.452Z,3.80
2018-09-17T17:56:33.988Z,2.80
2018-09-17T17:59:07.724Z,3.00
2018-09-17T18:01:43.362Z,5.23
2018-09-17T18:04:16.069Z,4.17
2018-09-17T18:06:54.594Z,5.93
2018-09-17T18:09:29.896Z,4.50
2018-09-17T18:12:03.032Z,5.87
2018-09-17T18:14:38.246Z,4.87
2018-09-17T18:17:13.306Z,2.83
2018-09-17T18:19:49.265Z,4.80
2018-09-17T18:22:22.108Z,4.00
2018-09-17T18:24:55.653Z,4.97
2018-09-17T18:27:30.461Z,5.47
2018-09-17T18:30:06.078Z,6.63
2018-09-17T18:32:40.603Z,3.60
2018-09-17T18:35:16.456Z,3.93
2018-09-17T18:37:52.452Z,6.73
2018-09-17T18:40:25.136Z,4.67
2018-09-17T18:42:58.741Z,3.97
2018-09-17T18:45:34.898Z,5.73
2018-09-17T18:48:10.270Z,5.70
2018-09-17T18:50:51.158Z,7.35
2018-09-17T18:53:26.440Z,4.35
2018-09-17T18:56:01.858Z,7.17
2018-09-17T18:58:37.218Z,5.43
2018-09-17T19:01:11.677Z,5.77
2018-09-17T19:03:49.401Z,3.93
2018-09-17T19:06:25.222Z,5.80
2018-09-17T19:08:59.027Z,5.57
2018-09-17T19:11:34.165Z,10.20
2018-09-17T19:14:15.934Z,5.03
2018-09-17T19:16:55.321Z,4.93
2018-09-17T19:19:31.321Z,4.15
2018-09-17T19:22:12.753Z,5.80
2018-09-17T19:24:47.209Z,4.73
2018-09-17T19:29:14.760Z,5.60
2018-09-17T19:31:48.748Z,7.00
2018-09-17T19:34:21.248Z,3.20
2018-09-17T19:37:13.835Z,4.12
2018-09-17T19:39:55.004Z,3.87
2018-09-17T19:42:32.134Z,6.40
2018-09-17T19:45:16.641Z,3.37
2018-09-17T19:47:53.783Z,3.13
2018-09-17T19:50:34.405Z,7.13
2018-09-17T19:53:15.462Z,4.60
2018-09-17T19:55:50.213Z,9.07
2018-09-17T19:58:31.981Z,4.40
2018-09-17T20:01:11.584Z,3.13
2018-09-17T20:03:46.330Z,5.20
2018-09-17T20:06:22.461Z,2.63
2018-09-17T20:08:56.801Z,2.87
2018-09-17T20:11:29.223Z,3.80
2018-09-17T20:14:03.652Z,2.73
2018-09-17T20:16:38.780Z,2.87
2018-09-17T20:19:12.605Z,4.23
2018-09-17T20:21:47.682Z,4.53
2018-09-17T20:24:22.649Z,3.20
2018-09-17T20:27:08.011Z,6.03
2018-09-17T20:29:42.625Z,5.00
2018-09-17T20:32:16.981Z,3.70
2018-09-17T20:34:53.027Z,4.07
2018-09-17T20:37:26.401Z,3.73
2018-09-17T20:40:01.818Z,4.20
2018-09-17T20:42:34.609Z,2.85
2018-09-17T20:45:08.275Z,4.40
2018-09-17T20:47:41.716Z,3.03
2018-09-17T20:50:14.460Z,3.37
2018-09-17T20:52:49.064Z,2.97
2018-09-17T20:57:57.484Z,4.47
2018-09-17T21:00:33.837Z,6.50
2018-09-17T21:03:15.349Z,5.07
2018-09-17T21:05:49.220Z,3.20
2018-09-17T21:08:22.787Z,4.57
2018-09-17T21:10:56.978Z,6.30
2018-09-17T21:13:31.461Z,6.23
2018-09-17T21:16:08.229Z,3.77
2018-09-17T21:18:43.099Z,2.70
2018-09-17T21:21:20.235Z,6.43
2018-09-17T21:23:54.541Z,4.20
2018-09-17T21:26:29.736Z,5.73
2018-09-17T21:29:02.852Z,3.10
2018-09-17T21:31:36.332Z,7.67
2018-09-17T21:34:09.291Z,3.40
2018-09-17T21:36:41.973Z,4.67
2018-09-17T21:39:14.936Z,5.00
2018-09-17T21:41:48.800Z,3.53
2018-09-17T21:44:22.313Z,4.43
2018-09-17T21:46:58.052Z,3.23
2018-09-17T21:49:34.601Z,4.80
2018-09-17T21:52:10.631Z,3.50
2018-09-17T21:54:51.328Z,7.07
2018-09-17T21:57:23.973Z,5.10
2018-09-17T21:59:56.494Z,7.23
2018-09-17T22:02:29.973Z,5.20
2018-09-17T22:05:03.585Z,6.00
2018-09-17T22:07:38.622Z,5.27
2018-09-17T22:10:13.149Z,4.32
2018-09-17T22:12:45.836Z,4.47
2018-09-17T22:15:18.586Z,4.03
2018-09-17T22:17:51.570Z,4.80
2018-09-17T22:20:24.332Z,3.03
2018-09-17T22:22:56.960Z,4.17
2018-09-17T22:25:29.877Z,2.93
2018-09-17T22:28:03.128Z,4.23
2018-09-17T22:30:35.640Z,4.30
2018-09-17T22:33:09.111Z,3.97
2018-09-17T22:35:41.891Z,5.53
2018-09-17T22:38:16.608Z,5.10
2018-09-17T22:40:50.332Z,7.40
2018-09-17T22:43:23.189Z,4.60
2018-09-17T22:45:56.324Z,5.07
2018-09-17T22:48:30.452Z,4.40
2018-09-17T22:51:03.296Z,6.93
2018-09-17T22:53:35.889Z,5.47
2018-09-17T22:56:09.925Z,8.33
2018-09-17T22:58:42.642Z,5.30
2018-09-17T23:01:15.203Z,3.90
2018-09-17T23:03:49.400Z,7.03
2018-09-17T23:06:22.061Z,4.23
2018-09-17T23:08:54.911Z,4.37
2018-09-17T23:11:29.102Z,3.33
2018-09-17T23:14:01.804Z,2.97
2018-09-17T23:16:35.020Z,5.17
2018-09-17T23:19:09.997Z,3.20
2018-09-17T23:21:42.645Z,4.87
2018-09-17T23:24:16.245Z,3.57
2018-09-17T23:26:50.153Z,6.55
2018-09-17T23:29:27.196Z,2.87
2018-09-17T23:31:59.664Z,6.97
2018-09-17T23:34:32.693Z,4.57
2018-09-17T23:37:08.380Z,4.40
2018-09-17T23:39:41.304Z,5.50
2018-09-17T23:42:14.262Z,3.93
2018-09-17T23:44:47.064Z,4.70
2018-09-17T23:47:19.627Z,4.17
2018-09-17T23:49:54.117Z,7.27
2018-09-17T23:52:26.695Z,7.20
2018-09-17T23:54:59.449Z,3.40
2018-09-17T23:57:32.408Z,3.67
